METAR UND TAF INFORMATION
VRMM 242300Z 07013KT 9000 SCT018TCU 28/24 Q1009 NOSIG

 FLUGHAFENKARTE

 RUNWAY INFORMATION
Runway 18 Runway length 10499 ft Runway width 148 ft
Runway elevation 6 ft Runway displaced threshold 328 ft Runway heading 179
Runway 36 Runway length 10499 ft Runway width 148 ft
Runway elevation 5 ft Runway displaced threshold 952 ft Runway heading 359

 AIRPORT FREQUENCIES
Type APP Name APP Frequency 119.7 MHZ
Type GND Name GND Frequency 121.6 MHZ
Type TWR Name TWR Frequency 118.1 MHZ

 AIRPORT NEAR NAVIGATION AIDS
Type NDB Name Male Frequency 252 KHZ
Type VOR-DME Name Male Frequency 114700 KHZ